createdAt,value
2022-09-13T00:00:08.685Z,615.1
2022-09-13T00:01:11.659Z,615.3
2022-09-13T00:02:14.397Z,615.4
2022-09-13T00:03:16.344Z,616
2022-09-13T00:04:18.819Z,615.6
2022-09-13T00:05:20.735Z,615.1
2022-09-13T00:06:23.226Z,615.6
2022-09-13T00:07:25.691Z,615.5
2022-09-13T00:08:28.167Z,615.3
2022-09-13T00:09:30.361Z,615.4
2022-09-13T00:10:32.280Z,615.8
2022-09-13T00:11:34.845Z,615.5
2022-09-13T00:12:37.338Z,615.8
2022-09-13T00:13:39.812Z,615.8
2022-09-13T00:14:42.310Z,616.5
2022-09-13T00:15:44.777Z,616.7
2022-09-13T00:16:47.582Z,617.2
2022-09-13T00:17:49.911Z,616.7
2022-09-13T00:18:52.118Z,617.2
2022-09-13T00:19:54.591Z,617.2
2022-09-13T00:20:57.061Z,617.4
2022-09-13T00:21:59.630Z,617.2
2022-09-13T00:23:01.556Z,617.2
2022-09-13T00:24:03.471Z,616.9
2022-09-13T00:25:05.947Z,617.3
2022-09-13T00:26:08.232Z,617
2022-09-13T00:27:10.718Z,617.8
2022-09-13T00:28:13.197Z,617.8
2022-09-13T00:29:15.664Z,618.2
2022-09-13T00:30:17.966Z,618.2
2022-09-13T00:31:20.882Z,618.2
2022-09-13T00:32:23.382Z,618.5
2022-09-13T00:33:25.683Z,618.2
2022-09-13T00:34:27.877Z,618
2022-09-13T00:35:30.353Z,618
2022-09-13T00:36:32.540Z,618.1
2022-09-13T00:37:35.039Z,618
2022-09-13T00:38:37.821Z,618.2
2022-09-13T00:39:40.763Z,618.2
2022-09-13T00:40:43.273Z,618.3
2022-09-13T00:41:45.832Z,618.2
2022-09-13T00:42:48.312Z,618.2
2022-09-13T00:43:51.283Z,618
2022-09-13T00:44:53.737Z,617.5
2022-09-13T00:45:56.606Z,617.9
2022-09-13T00:46:58.843Z,617.4
2022-09-13T00:48:01.326Z,617.7
2022-09-13T00:49:03.357Z,617.4
2022-09-13T00:50:05.834Z,617.8
2022-09-13T00:51:08.393Z,617.7
2022-09-13T00:52:10.872Z,617.9
2022-09-13T00:53:13.110Z,618.1
2022-09-13T00:54:15.343Z,618
2022-09-13T00:55:17.815Z,618.3
2022-09-13T00:56:19.709Z,618.5
2022-09-13T00:57:22.204Z,618.6
2022-09-13T00:58:24.488Z,618.6
2022-09-13T00:59:26.964Z,618.7
2022-09-13T01:00:29.448Z,618.8
2022-09-13T01:01:32.043Z,618.9
2022-09-13T01:02:34.841Z,619.1
2022-09-13T01:03:37.462Z,619
2022-09-13T01:04:40.068Z,618.8
2022-09-13T01:05:57.208Z,619.2
2022-09-13T01:06:59.681Z,619.2
2022-09-13T01:08:01.602Z,619.7
2022-09-13T01:09:03.792Z,619.9
2022-09-13T01:10:05.989Z,620.2
2022-09-13T01:11:08.181Z,620.4
2022-09-13T01:12:10.651Z,620.8
2022-09-13T01:13:12.674Z,620.7
2022-09-13T01:14:15.252Z,620.4
2022-09-13T01:15:17.739Z,620.8
2022-09-13T01:16:20.297Z,621.3
2022-09-13T01:17:22.243Z,621.3
2022-09-13T01:18:24.702Z,621.7
2022-09-13T01:19:27.173Z,621.5
2022-09-13T01:20:29.675Z,621.4
2022-09-13T01:21:31.865Z,621.5
2022-09-13T01:22:34.058Z,621.2
2022-09-13T01:23:36.616Z,621.2
2022-09-13T01:24:38.847Z,620.8
2022-09-13T01:25:41.319Z,621.2
2022-09-13T01:26:43.492Z,621.4
2022-09-13T01:27:45.418Z,621.5
2022-09-13T01:28:48.004Z,621.7
2022-09-13T01:29:50.487Z,621.4
2022-09-13T01:30:52.957Z,621.7
2022-09-13T01:31:55.633Z,621.5
2022-09-13T01:32:58.245Z,622.1
2022-09-13T01:34:00.712Z,621.9
2022-09-13T01:35:03.174Z,621.7
2022-09-13T01:36:05.661Z,621.6
2022-09-13T01:37:08.123Z,621.8
2022-09-13T01:38:10.597Z,621.4
2022-09-13T01:39:13.080Z,621.5
2022-09-13T01:40:16.007Z,621.5
2022-09-13T01:41:18.517Z,621.6
2022-09-13T01:42:20.723Z,621.7
2022-09-13T01:43:22.930Z,622.1
2022-09-13T01:44:24.962Z,621.8
2022-09-13T01:45:27.847Z,622.4
2022-09-13T01:46:30.709Z,622.1
2022-09-13T01:47:33.082Z,622.3
2022-09-13T01:48:35.020Z,621.7
2022-09-13T01:49:38.219Z,622
2022-09-13T01:50:41.046Z,621.8
2022-09-13T01:51:43.339Z,621.4
2022-09-13T01:52:45.520Z,621.7
2022-09-13T01:53:48.282Z,621.9
2022-09-13T01:54:50.818Z,622.2
2022-09-13T01:55:53.396Z,622.3
2022-09-13T01:56:55.589Z,622.7
2022-09-13T01:57:58.059Z,622.7
2022-09-13T01:59:00.256Z,622.6
2022-09-13T02:00:02.474Z,622.6
2022-09-13T02:01:04.745Z,622.1
2022-09-13T02:02:07.364Z,622.1
2022-09-13T02:03:09.569Z,622.3
2022-09-13T02:04:12.155Z,622.1
2022-09-13T02:05:14.337Z,622.6
2022-09-13T02:06:16.533Z,622.7
2022-09-13T02:07:19.031Z,623
2022-09-13T02:08:21.219Z,622.4
2022-09-13T02:09:22.897Z,622.9
2022-09-13T02:10:25.395Z,622.9
2022-09-13T02:11:27.889Z,623.1
2022-09-13T02:12:30.091Z,622.6
2022-09-13T02:13:32.554Z,622.8
2022-09-13T02:14:35.024Z,623.1
2022-09-13T02:15:37.230Z,622.7
2022-09-13T02:16:39.760Z,622.1
2022-09-13T02:17:41.681Z,622.3
2022-09-13T02:18:44.154Z,621.6
2022-09-13T02:19:46.643Z,621.6
2022-09-13T02:20:49.117Z,621.9
2022-09-13T02:21:51.628Z,622
2022-09-13T02:22:54.128Z,622
2022-09-13T02:23:56.318Z,622.5
2022-09-13T02:24:58.806Z,622.3
2022-09-13T02:26:01.275Z,622
2022-09-13T02:27:03.843Z,621.8
2022-09-13T02:28:05.474Z,622
2022-09-13T02:29:07.945Z,621.8
2022-09-13T02:30:10.413Z,621.9
2022-09-13T02:31:12.761Z,621.8
2022-09-13T02:32:15.328Z,621.6
2022-09-13T02:33:17.530Z,621.5
2022-09-13T02:34:19.998Z,621.8
2022-09-13T02:35:22.203Z,621.8
2022-09-13T02:36:24.666Z,621.6
2022-09-13T02:37:27.160Z,621.8
2022-09-13T02:38:29.655Z,621.9
2022-09-13T02:39:32.137Z,621.6
2022-09-13T02:40:34.604Z,621.5
2022-09-13T02:41:36.797Z,621.6
2022-09-13T02:42:39.298Z,622
2022-09-13T02:43:41.963Z,622.1
2022-09-13T02:44:44.526Z,622.1
2022-09-13T02:45:47.278Z,622.1
2022-09-13T02:46:49.283Z,622.2
2022-09-13T02:47:51.771Z,621.8
2022-09-13T02:48:54.274Z,621.7
2022-09-13T02:49:56.465Z,621.4
2022-09-13T02:50:58.773Z,621.3
2022-09-13T02:52:01.231Z,621.1
2022-09-13T02:53:03.715Z,621.6
2022-09-13T02:54:06.223Z,621.6
2022-09-13T02:55:08.725Z,621.6
2022-09-13T02:56:10.913Z,621.8
2022-09-13T02:57:13.385Z,621.7
2022-09-13T02:58:15.645Z,622
2022-09-13T02:59:17.854Z,621.6
2022-09-13T03:00:20.030Z,621.9
2022-09-13T03:01:22.947Z,622.2
2022-09-13T03:02:25.848Z,621.9
2022-09-13T03:03:28.072Z,621.8
2022-09-13T03:04:30.257Z,621.8
2022-09-13T03:05:32.733Z,621.3
2022-09-13T03:06:35.223Z,621.5
2022-09-13T03:07:37.687Z,621
2022-09-13T03:08:40.188Z,621.1
2022-09-13T03:09:42.690Z,621.2
2022-09-13T03:10:45.160Z,621.6
2022-09-13T03:11:47.652Z,621.5
2022-09-13T03:12:50.114Z,621.1
2022-09-13T03:13:52.314Z,621.3
2022-09-13T03:14:54.781Z,620.8
2022-09-13T03:15:57.257Z,620.6
2022-09-13T03:16:59.464Z,620.6
2022-09-13T03:18:01.683Z,620.6
2022-09-13T03:19:04.185Z,620.9
2022-09-13T03:20:05.565Z,620.9
2022-09-13T03:21:08.028Z,621.1
2022-09-13T03:22:10.545Z,621.4
2022-09-13T03:23:12.456Z,621
2022-09-13T03:24:14.939Z,621.4
2022-09-13T03:25:17.154Z,621.2
2022-09-13T03:26:19.350Z,621.6
2022-09-13T03:27:21.597Z,622
2022-09-13T03:28:24.068Z,622.3
2022-09-13T03:29:26.284Z,622.2
2022-09-13T03:30:28.761Z,622.2
2022-09-13T03:31:31.579Z,622.5
2022-09-13T03:32:34.107Z,622.7
2022-09-13T03:33:36.584Z,622.9
2022-09-13T03:34:39.075Z,623
2022-09-13T03:35:41.283Z,622.8
2022-09-13T03:36:43.758Z,623
2022-09-13T03:37:46.267Z,622.9
2022-09-13T03:38:49.004Z,623
2022-09-13T03:39:51.618Z,623.3
2022-09-13T03:40:53.845Z,623.6
2022-09-13T03:41:56.046Z,623.5
2022-09-13T03:42:58.515Z,623.5
2022-09-13T03:44:00.984Z,623.2
2022-09-13T03:45:03.530Z,622.6
2022-09-13T03:46:06.330Z,622.6
2022-09-13T03:47:08.840Z,622
2022-09-13T03:48:11.326Z,622.1
2022-09-13T03:49:13.268Z,622.2
2022-09-13T03:50:15.760Z,621.9
2022-09-13T03:51:17.950Z,621.9
2022-09-13T03:52:20.426Z,621.6
2022-09-13T03:53:22.629Z,621.2
2022-09-13T03:54:25.159Z,621.4
2022-09-13T03:55:27.361Z,621
2022-09-13T03:56:29.296Z,621.4
2022-09-13T03:57:31.811Z,621.5
2022-09-13T03:58:34.309Z,621.4
2022-09-13T03:59:36.512Z,621.6
2022-09-13T04:00:38.998Z,621.6
2022-09-13T04:01:41.468Z,621.2
2022-09-13T04:02:43.968Z,621.5
2022-09-13T04:03:46.443Z,621.4
2022-09-13T04:04:48.746Z,621.5
2022-09-13T04:05:51.237Z,621.1
2022-09-13T04:06:53.410Z,620.9
2022-09-13T04:07:55.879Z,621.5
2022-09-13T04:08:58.437Z,621.5
2022-09-13T04:10:00.667Z,621.6
2022-09-13T04:11:03.141Z,621.3
2022-09-13T04:12:05.734Z,622
2022-09-13T04:13:08.216Z,622.1
2022-09-13T04:14:10.686Z,621.4
2022-09-13T04:15:13.169Z,621.7
2022-09-13T04:16:16.224Z,622.2
2022-09-13T04:17:18.719Z,621.8
2022-09-13T04:18:20.922Z,621.9
2022-09-13T04:19:23.401Z,622.1
2022-09-13T04:20:25.422Z,622.1
2022-09-13T04:21:27.640Z,622.2
2022-09-13T04:22:29.848Z,622.3
2022-09-13T04:23:32.053Z,622.1
2022-09-13T04:24:34.271Z,622.5
2022-09-13T04:25:36.743Z,622.4
2022-09-13T04:26:38.946Z,622.7
2022-09-13T04:27:41.171Z,622.3
2022-09-13T04:28:43.670Z,622.1
2022-09-13T04:29:45.867Z,622
2022-09-13T04:30:48.066Z,622.2
2022-09-13T04:31:50.670Z,622
2022-09-13T04:32:52.886Z,622.1
2022-09-13T04:33:54.806Z,622
2022-09-13T04:34:57.299Z,621.8
2022-09-13T04:35:59.595Z,621.8
2022-09-13T04:37:01.257Z,621.9
2022-09-13T04:38:03.437Z,621.5
2022-09-13T04:39:05.633Z,621.5
2022-09-13T04:40:08.610Z,621.3
2022-09-13T04:41:11.193Z,621.1
2022-09-13T04:42:13.664Z,621.2
2022-09-13T04:43:16.239Z,621.5
2022-09-13T04:44:18.752Z,621.7
2022-09-13T04:45:21.237Z,621.5
2022-09-13T04:46:23.646Z,621.4
2022-09-13T04:47:25.870Z,622.1
2022-09-13T04:48:28.061Z,622
2022-09-13T04:49:30.542Z,621.8
2022-09-13T04:50:32.737Z,621.4
2022-09-13T04:51:34.955Z,621.1
2022-09-13T04:52:37.163Z,620.8
2022-09-13T04:53:39.638Z,620.9
2022-09-13T04:54:42.126Z,621
2022-09-13T04:55:44.626Z,620.7
2022-09-13T04:56:47.230Z,621.1
2022-09-13T04:57:49.450Z,620.8
2022-09-13T04:58:52.081Z,620.7
2022-09-13T04:59:54.555Z,620.5
2022-09-13T05:00:57.511Z,620.3
2022-09-13T05:02:00.405Z,620.3
2022-09-13T05:03:02.637Z,620.3
2022-09-13T05:04:05.118Z,620.7
2022-09-13T05:05:07.608Z,620.5
2022-09-13T05:06:09.802Z,620.5
2022-09-13T05:07:12.298Z,620.1
2022-09-13T05:08:14.518Z,620.9
2022-09-13T05:09:16.990Z,620.6
2022-09-13T05:10:21.581Z,620.6
2022-09-13T05:11:24.073Z,620.9
2022-09-13T05:12:26.537Z,620.4
2022-09-13T05:13:28.748Z,620.4
2022-09-13T05:14:30.961Z,620.4
2022-09-13T05:15:33.151Z,620.4
2022-09-13T05:16:35.352Z,620.8
2022-09-13T05:17:37.550Z,620.8
2022-09-13T05:19:45.145Z,620.9
2022-09-13T05:20:47.335Z,620.5
2022-09-13T05:21:49.812Z,620.8
2022-09-13T05:22:52.033Z,620.2
2022-09-13T05:23:54.355Z,620.3
2022-09-13T05:24:56.539Z,619.7
2022-09-13T05:25:59.024Z,619.4
2022-09-13T05:27:01.247Z,619.1
2022-09-13T05:28:03.718Z,619
2022-09-13T05:29:05.644Z,619.4
2022-09-13T05:30:08.219Z,619
2022-09-13T05:31:11.023Z,618.8
2022-09-13T05:32:13.539Z,619.3
2022-09-13T05:33:16.024Z,619.3
2022-09-13T05:34:18.248Z,619.3
2022-09-13T05:35:20.754Z,619.8
2022-09-13T05:36:23.247Z,619.8
2022-09-13T05:37:25.450Z,620.3
2022-09-13T05:38:28.062Z,620.5
2022-09-13T05:40:35.644Z,620.8
2022-09-13T05:41:37.860Z,621
2022-09-13T05:42:40.093Z,621
2022-09-13T05:43:42.282Z,621.2
2022-09-13T05:44:44.458Z,621.1
2022-09-13T05:45:47.183Z,620.6
2022-09-13T05:46:49.683Z,620.6
2022-09-13T05:47:51.314Z,620.6
2022-09-13T05:48:53.249Z,620.5
2022-09-13T05:51:00.738Z,620.8
2022-09-13T05:52:02.658Z,620.7
2022-09-13T05:53:05.187Z,620.6
2022-09-13T05:54:07.767Z,620.2
2022-09-13T05:55:10.301Z,619.9
2022-09-13T05:57:17.772Z,620
2022-09-13T05:58:20.360Z,620
2022-09-13T05:59:22.549Z,619.8
2022-09-13T06:00:24.761Z,619.7
2022-09-13T06:01:27.493Z,619.7
2022-09-13T06:02:30.254Z,619.7
2022-09-13T06:03:32.774Z,619.7
2022-09-13T06:04:35.260Z,619.6
2022-09-13T06:05:37.464Z,619.3
2022-09-13T06:06:39.947Z,619.9
2022-09-13T06:07:42.128Z,620
2022-09-13T06:08:44.424Z,620
2022-09-13T06:09:46.708Z,620.1
2022-09-13T06:10:48.901Z,620.3
2022-09-13T06:11:51.107Z,620.6
2022-09-13T06:12:53.577Z,620.3
2022-09-13T06:13:56.104Z,620.1
2022-09-13T06:14:58.297Z,620
2022-09-13T06:16:00.574Z,620
2022-09-13T06:17:02.882Z,619.6
2022-09-13T06:18:05.079Z,619.7
2022-09-13T06:19:07.550Z,619.6
2022-09-13T06:20:10.035Z,619.5
2022-09-13T06:21:11.969Z,619.8
2022-09-13T06:22:14.191Z,619.9
2022-09-13T06:23:16.716Z,619.6
2022-09-13T06:24:19.204Z,619.5
2022-09-13T06:25:21.777Z,619.6
2022-09-13T06:26:24.361Z,619.4
2022-09-13T06:27:26.552Z,619.6
2022-09-13T06:28:29.047Z,619.9
2022-09-13T06:29:31.688Z,620.2
2022-09-13T06:30:33.883Z,620.1
2022-09-13T06:31:36.591Z,620.7
2022-09-13T06:32:39.210Z,620.7
2022-09-13T06:33:41.685Z,620.8
2022-09-13T06:34:43.901Z,620.6
2022-09-13T06:35:46.376Z,620.7
2022-09-13T06:36:48.854Z,620.6
2022-09-13T06:37:51.346Z,620.4
2022-09-13T06:38:53.814Z,620.2
2022-09-13T06:39:56.069Z,619.8
2022-09-13T06:40:58.315Z,620
2022-09-13T06:42:00.608Z,620.3
2022-09-13T06:43:03.088Z,620.4
2022-09-13T06:44:05.277Z,620
2022-09-13T06:45:07.503Z,620.1
2022-09-13T06:46:09.939Z,620.4
2022-09-13T06:47:12.435Z,619.5
2022-09-13T06:48:14.936Z,620
2022-09-13T06:49:17.416Z,619.8
2022-09-13T06:50:19.898Z,619.7
2022-09-13T06:51:22.090Z,619.5
2022-09-13T06:52:24.304Z,619.5
2022-09-13T06:53:26.599Z,619.5
2022-09-13T06:54:28.795Z,619.9
2022-09-13T06:55:30.987Z,620.3
2022-09-13T06:56:32.958Z,620.6
2022-09-13T06:57:35.515Z,620.7
2022-09-13T06:58:38.133Z,620.6
2022-09-13T06:59:40.371Z,620.5
2022-09-13T07:00:42.721Z,620.6
2022-09-13T07:01:45.776Z,620.3
2022-09-13T07:02:48.017Z,620.9
2022-09-13T07:03:49.958Z,621
2022-09-13T07:04:52.158Z,621.4
2022-09-13T07:05:54.624Z,621.2
2022-09-13T07:06:57.100Z,621.6
2022-09-13T07:07:59.583Z,621.2
2022-09-13T07:09:02.079Z,621.5
2022-09-13T07:10:04.277Z,621.5
2022-09-13T07:11:06.765Z,620.8
2022-09-13T07:12:09.417Z,620.8
2022-09-13T07:13:11.930Z,620.8
2022-09-13T07:14:14.441Z,620.3
2022-09-13T07:15:16.943Z,620.1
2022-09-13T07:16:19.585Z,620
2022-09-13T07:17:22.076Z,619.5
2022-09-13T07:18:24.543Z,619.8
2022-09-13T07:19:27.069Z,619.8
2022-09-13T07:20:28.979Z,619.8
2022-09-13T07:21:31.180Z,620.1
2022-09-13T07:22:33.652Z,620.1
2022-09-13T07:23:35.849Z,620.5
2022-09-13T07:24:38.346Z,620.5
2022-09-13T07:25:40.555Z,620.4
2022-09-13T07:26:42.745Z,620.5
2022-09-13T07:27:45.259Z,620.6
2022-09-13T07:28:47.832Z,620.5
2022-09-13T07:29:50.306Z,620
2022-09-13T07:30:52.785Z,619.7
2022-09-13T07:31:55.421Z,619.9
2022-09-13T07:32:57.887Z,620.2
2022-09-13T07:33:59.860Z,620.8
2022-09-13T07:35:02.358Z,621.2
2022-09-13T07:36:04.854Z,621.4
2022-09-13T07:37:07.341Z,621
2022-09-13T07:38:09.819Z,620.8
2022-09-13T07:40:17.754Z,620.5
2022-09-13T07:41:19.978Z,621.1
2022-09-13T07:42:22.178Z,621.1
2022-09-13T07:43:24.673Z,621.2
2022-09-13T07:44:26.930Z,621.1
2022-09-13T07:45:29.405Z,620.6
2022-09-13T07:46:31.675Z,620.4
2022-09-13T07:47:34.181Z,620.3
2022-09-13T07:48:36.654Z,619.6
2022-09-13T07:49:38.858Z,619.7
2022-09-13T07:50:41.347Z,619.5
2022-09-13T07:51:43.549Z,619.3
2022-09-13T07:52:45.749Z,619.4
2022-09-13T07:53:48.218Z,619.6
2022-09-13T07:54:50.421Z,619.8
2022-09-13T07:55:52.629Z,620
2022-09-13T07:56:54.815Z,620.1
2022-09-13T07:57:56.998Z,620.3
2022-09-13T07:58:59.207Z,620.7
2022-09-13T08:00:01.143Z,620.8
2022-09-13T08:01:03.887Z,621
2022-09-13T08:02:07.243Z,621
2022-09-13T08:03:09.857Z,620.4
2022-09-13T08:04:12.056Z,620.3
2022-09-13T08:05:14.547Z,620.4
2022-09-13T08:06:16.467Z,620.4
2022-09-13T08:07:18.395Z,620.1
2022-09-13T08:08:20.864Z,619.9
2022-09-13T08:09:23.341Z,619.8
2022-09-13T08:10:25.272Z,619.9
2022-09-13T08:11:27.795Z,619.9
2022-09-13T08:12:30.280Z,619.8
2022-09-13T08:13:31.937Z,620.2
2022-09-13T08:14:34.437Z,620.4
2022-09-13T08:15:37.025Z,620.4
2022-09-13T08:16:39.235Z,620.3
2022-09-13T08:17:41.435Z,620.4
2022-09-13T08:18:43.670Z,620.4
2022-09-13T08:19:45.867Z,620.1
2022-09-13T08:20:48.365Z,620.5
2022-09-13T08:21:50.594Z,620.5
2022-09-13T08:22:53.196Z,620.4
2022-09-13T08:23:55.412Z,620.1
2022-09-13T08:24:57.876Z,620.2
2022-09-13T08:26:00.351Z,620.3
2022-09-13T08:27:02.857Z,620.6
2022-09-13T08:28:05.344Z,620.7
2022-09-13T08:29:07.824Z,620.5
2022-09-13T08:30:09.769Z,620.6
2022-09-13T08:31:12.586Z,620.3
2022-09-13T08:32:14.808Z,620.7
2022-09-13T08:33:17.283Z,620.8
2022-09-13T08:34:19.795Z,620.6
2022-09-13T08:35:21.997Z,620.6
2022-09-13T08:36:24.206Z,620.4
2022-09-13T08:37:26.505Z,620.3
2022-09-13T08:38:28.424Z,620.4
2022-09-13T08:40:37.920Z,620.3
2022-09-13T08:41:40.403Z,620
2022-09-13T08:42:42.902Z,619.4
2022-09-13T08:43:44.865Z,620
2022-09-13T08:44:47.062Z,619.5
2022-09-13T08:45:49.768Z,619.7
2022-09-13T08:46:52.007Z,619.7
2022-09-13T08:47:54.198Z,619.7
2022-09-13T08:48:56.693Z,619.9
2022-09-13T08:49:59.193Z,619.9
2022-09-13T08:51:01.662Z,620.3
2022-09-13T08:52:03.857Z,620.5
2022-09-13T08:53:06.123Z,620.6
2022-09-13T08:54:09.728Z,620.5
2022-09-13T08:55:11.931Z,620.9
2022-09-13T08:56:14.414Z,620.7
2022-09-13T08:57:16.640Z,620.8
2022-09-13T08:58:19.215Z,621.1
2022-09-13T08:59:21.144Z,621.4
2022-09-13T09:00:23.291Z,621.3
2022-09-13T09:01:26.005Z,621.7
2022-09-13T09:02:28.909Z,621.5
2022-09-13T09:03:31.178Z,621.8
2022-09-13T09:04:33.352Z,621.6
2022-09-13T09:05:35.849Z,621.5
2022-09-13T09:06:38.343Z,621.8
2022-09-13T09:07:40.825Z,621.8
2022-09-13T09:08:43.429Z,621.7
2022-09-13T09:09:45.911Z,622
2022-09-13T09:10:47.830Z,621.6
2022-09-13T09:11:50.325Z,621.1
2022-09-13T09:12:51.949Z,621.6
2022-09-13T09:13:54.249Z,621.3
2022-09-13T09:14:56.727Z,621.7
2022-09-13T09:15:59.635Z,621.5
2022-09-13T09:17:02.227Z,621.8
2022-09-13T09:18:04.471Z,621.8
2022-09-13T09:19:06.373Z,621.5
2022-09-13T09:20:08.551Z,621.4
2022-09-13T09:21:11.058Z,621.4
2022-09-13T09:22:13.255Z,621.2
2022-09-13T09:24:20.465Z,621.7
2022-09-13T09:25:22.938Z,621.4
2022-09-13T09:26:25.143Z,621.7
2022-09-13T09:27:27.620Z,622
2022-09-13T09:28:30.112Z,621.9
2022-09-13T09:29:32.677Z,622.1
2022-09-13T09:30:35.443Z,622.2
2022-09-13T09:31:37.955Z,622.3
2022-09-13T09:32:40.532Z,622.3
2022-09-13T09:33:43.192Z,622.4
2022-09-13T09:34:45.396Z,622.5
2022-09-13T09:35:47.597Z,622.3
2022-09-13T09:36:49.559Z,622.2
2022-09-13T09:37:51.206Z,622.4
2022-09-13T09:38:53.680Z,622.5
2022-09-13T09:39:56.471Z,622.2
2022-09-13T09:40:58.695Z,622.4
2022-09-13T09:42:01.210Z,622.3
2022-09-13T09:43:03.689Z,622.4
2022-09-13T09:44:05.634Z,622.5
2022-09-13T09:45:07.844Z,622.6
2022-09-13T09:46:09.704Z,622.5
2022-09-13T09:47:12.187Z,622.1
2022-09-13T09:48:14.407Z,622.2
2022-09-13T09:49:16.417Z,622
2022-09-13T09:50:18.903Z,621.8
2022-09-13T09:51:21.106Z,622
2022-09-13T09:52:23.634Z,622.2
2022-09-13T09:53:25.832Z,622.3
2022-09-13T09:54:28.030Z,622.3
2022-09-13T09:55:30.529Z,622.3
2022-09-13T09:56:32.455Z,623
2022-09-13T09:57:34.656Z,623.5
2022-09-13T09:58:37.122Z,623.5
2022-09-13T09:59:39.607Z,623.6
2022-09-13T10:00:42.090Z,623.5
2022-09-13T10:01:44.784Z,623.9
2022-09-13T10:02:47.371Z,624.3
2022-09-13T10:03:50.453Z,624.6
2022-09-13T10:04:52.938Z,624.6
2022-09-13T10:05:55.417Z,624.9
2022-09-13T10:06:57.621Z,625.3
2022-09-13T10:07:59.581Z,625.2
2022-09-13T10:09:02.050Z,625.2
2022-09-13T10:10:04.580Z,625.9
2022-09-13T10:11:06.336Z,626.2
2022-09-13T10:12:08.806Z,626.7
2022-09-13T10:13:10.997Z,626.5
2022-09-13T10:14:13.219Z,626.6
2022-09-13T10:15:15.695Z,626.9
2022-09-13T10:16:18.458Z,626
2022-09-13T10:17:20.977Z,626.2
2022-09-13T10:19:28.206Z,626.6
2022-09-13T10:20:30.788Z,626.4
2022-09-13T10:21:33.000Z,626
2022-09-13T10:22:35.465Z,626.7
2022-09-13T10:23:37.442Z,626.5
2022-09-13T10:24:39.363Z,626.3
2022-09-13T10:26:47.422Z,626.5
2022-09-13T10:27:49.614Z,626.4
2022-09-13T10:28:52.151Z,626.7
2022-09-13T10:29:54.623Z,627
2022-09-13T10:30:57.484Z,626.8
2022-09-13T10:31:59.709Z,626.5
2022-09-13T10:33:01.927Z,626.9
2022-09-13T10:34:04.144Z,626.9
2022-09-13T10:35:06.635Z,626.8
2022-09-13T10:36:08.904Z,626.7
2022-09-13T10:37:11.379Z,627
2022-09-13T10:38:13.300Z,627.2
2022-09-13T10:39:15.900Z,627
2022-09-13T10:40:18.711Z,627.1
2022-09-13T10:41:20.967Z,626.6
2022-09-13T10:42:23.280Z,627.1
2022-09-13T10:43:25.763Z,626.7
2022-09-13T10:44:27.669Z,626.8
2022-09-13T10:45:30.139Z,626.8
2022-09-13T10:46:32.312Z,626.8
2022-09-13T10:47:34.806Z,627.2
2022-09-13T10:48:37.357Z,626.6
2022-09-13T10:49:39.378Z,627
2022-09-13T10:50:41.895Z,626.6
2022-09-13T10:51:44.144Z,626.8
2022-09-13T10:52:46.668Z,626.8
2022-09-13T10:53:48.876Z,626.8
2022-09-13T10:54:51.189Z,627.7
2022-09-13T10:55:53.670Z,627.3
2022-09-13T10:56:56.148Z,627.3
2022-09-13T10:57:58.630Z,627.8
2022-09-13T10:59:01.115Z,627.6
2022-09-13T11:00:03.040Z,627.7
2022-09-13T11:01:05.298Z,627.4
2022-09-13T11:02:07.821Z,627.7
2022-09-13T11:03:10.304Z,627.8
2022-09-13T11:04:13.186Z,627.8
2022-09-13T11:05:15.422Z,628.3
2022-09-13T11:06:17.636Z,628
2022-09-13T11:07:20.129Z,628.3
2022-09-13T11:08:22.616Z,628.8
2022-09-13T11:09:25.101Z,628.7
2022-09-13T11:10:27.140Z,628.8
2022-09-13T11:11:29.603Z,628.9
2022-09-13T11:12:32.076Z,629.1
2022-09-13T11:13:34.651Z,629.1
2022-09-13T11:14:37.122Z,629.4
2022-09-13T11:15:39.593Z,629.6
2022-09-13T11:16:42.315Z,629.8
2022-09-13T11:17:44.520Z,630.3
2022-09-13T11:18:45.894Z,629.8
2022-09-13T11:19:47.822Z,629.2
2022-09-13T11:20:50.022Z,629
2022-09-13T11:21:52.250Z,629
2022-09-13T11:22:54.746Z,629.3
2022-09-13T11:23:56.392Z,629
2022-09-13T11:24:58.571Z,629.8
2022-09-13T11:26:01.084Z,629.7
2022-09-13T11:27:03.550Z,629.8
2022-09-13T11:28:05.453Z,629.7
2022-09-13T11:29:07.949Z,629.5
2022-09-13T11:30:10.710Z,629.7
2022-09-13T11:31:12.913Z,629.9
2022-09-13T11:32:15.384Z,630.1
2022-09-13T11:33:17.852Z,629.7
2022-09-13T11:34:19.797Z,629.3
2022-09-13T11:35:22.281Z,629.7
2022-09-13T11:36:24.765Z,629.6
2022-09-13T11:37:26.975Z,629.6
2022-09-13T11:38:29.475Z,629.2
2022-09-13T11:39:31.393Z,629.2
2022-09-13T11:40:33.963Z,629.4
2022-09-13T11:41:36.186Z,629.4
2022-09-13T11:42:38.404Z,629.2
2022-09-13T11:43:40.635Z,629.2
2022-09-13T11:44:43.220Z,629.6
2022-09-13T11:45:45.447Z,629.4
2022-09-13T11:46:47.658Z,629.5
2022-09-13T11:47:50.152Z,629.7
2022-09-13T11:48:52.347Z,629.5
2022-09-13T11:49:54.966Z,629.2
2022-09-13T11:50:57.476Z,629.2
2022-09-13T11:52:00.001Z,629.4
2022-09-13T11:53:02.296Z,629.5
2022-09-13T11:54:04.074Z,629.4
2022-09-13T11:55:06.574Z,629.4
2022-09-13T11:56:09.052Z,629.3
2022-09-13T11:57:11.563Z,629.4
2022-09-13T11:58:14.028Z,629.3
2022-09-13T11:59:17.477Z,628.8
2022-09-13T12:00:20.056Z,628.5
2022-09-13T12:01:22.530Z,628.9
2022-09-13T12:02:25.262Z,628.8
2022-09-13T12:03:28.382Z,628.9
2022-09-13T12:05:35.909Z,628.9
2022-09-13T12:06:38.391Z,628.7
2022-09-13T12:07:40.866Z,629.1
2022-09-13T12:08:43.174Z,629.3
2022-09-13T12:09:45.666Z,629
2022-09-13T12:10:48.135Z,629.2
2022-09-13T12:11:50.624Z,629.1
2022-09-13T12:12:52.943Z,628.9
2022-09-13T12:13:55.437Z,629.4
2022-09-13T12:14:57.634Z,629.6
2022-09-13T12:15:59.862Z,629.7
2022-09-13T12:17:02.442Z,630
2022-09-13T12:18:04.940Z,630.1
2022-09-13T12:19:07.417Z,629.9
2022-09-13T12:20:09.634Z,630.1
2022-09-13T12:21:12.235Z,630.6
2022-09-13T12:22:14.433Z,630.6
2022-09-13T12:23:16.897Z,630.5
2022-09-13T12:24:19.199Z,630.8
2022-09-13T12:25:21.442Z,630.4
2022-09-13T12:26:23.925Z,631
2022-09-13T12:27:25.851Z,630.9
2022-09-13T12:28:28.396Z,630.6
2022-09-13T12:29:30.873Z,630.9
2022-09-13T12:30:33.355Z,630.7
2022-09-13T12:31:36.032Z,630.4
2022-09-13T12:32:38.531Z,630.9
2022-09-13T12:33:40.776Z,631
2022-09-13T12:34:43.001Z,631
2022-09-13T12:35:45.471Z,630.8
2022-09-13T12:36:47.994Z,631.4
2022-09-13T12:37:50.465Z,631.5
2022-09-13T12:38:52.648Z,631.6
2022-09-13T12:39:55.500Z,631.7
2022-09-13T12:40:58.102Z,631.6
2022-09-13T12:42:00.586Z,631.4
2022-09-13T12:43:03.060Z,631.8
2022-09-13T12:44:04.707Z,632
2022-09-13T12:45:07.188Z,632.1
2022-09-13T12:46:09.450Z,632.4
2022-09-13T12:47:12.283Z,632.3
2022-09-13T12:48:14.770Z,632.4
2022-09-13T12:49:17.255Z,632
2022-09-13T12:51:24.721Z,632.1
2022-09-13T12:52:27.284Z,632.4
2022-09-13T12:53:29.769Z,632.3
2022-09-13T12:54:31.979Z,632.1
2022-09-13T12:56:39.220Z,632.4
2022-09-13T12:57:41.696Z,632.6
2022-09-13T12:58:43.904Z,632.2
2022-09-13T12:59:46.119Z,632.2
2022-09-13T13:00:48.893Z,631.8
2022-09-13T13:01:51.703Z,631.6
2022-09-13T13:03:58.939Z,632.1
2022-09-13T13:05:01.410Z,632
2022-09-13T13:06:03.606Z,631.9
2022-09-13T13:07:05.792Z,632
2022-09-13T13:08:08.009Z,632.1
2022-09-13T13:09:10.204Z,631.7
2022-09-13T13:10:12.429Z,631.8
2022-09-13T13:11:14.347Z,632.1
2022-09-13T13:12:16.907Z,632.1
2022-09-13T13:13:19.109Z,631.7
2022-09-13T13:14:21.581Z,631.7
2022-09-13T13:15:24.078Z,631.7
2022-09-13T13:16:26.801Z,631.4
2022-09-13T13:17:29.310Z,631.3
2022-09-13T13:18:31.511Z,631.2
2022-09-13T13:19:33.461Z,631.8
2022-09-13T13:20:35.671Z,631.3
2022-09-13T13:21:38.153Z,631.4
2022-09-13T13:22:40.340Z,631.6
2022-09-13T13:23:42.791Z,631.9
2022-09-13T13:24:45.268Z,632
2022-09-13T13:25:47.744Z,632.1
2022-09-13T13:26:49.679Z,632
2022-09-13T13:27:52.186Z,631.8
2022-09-13T13:28:54.671Z,631.7
2022-09-13T13:29:56.849Z,631.9
2022-09-13T13:30:59.349Z,632.3
2022-09-13T13:32:01.429Z,632.5
2022-09-13T13:33:04.333Z,632.5
2022-09-13T13:34:06.250Z,632.8
2022-09-13T13:35:08.473Z,632.8
2022-09-13T13:36:10.669Z,633.3
2022-09-13T13:37:13.158Z,633.5
2022-09-13T13:38:15.364Z,633.5
2022-09-13T13:39:17.855Z,633.8
2022-09-13T13:40:20.414Z,633.3
2022-09-13T13:41:22.694Z,633.6
2022-09-13T13:42:25.170Z,633.4